createdAt,value
2022-08-08T00:02:30.545Z,29.50
2022-08-08T00:05:01.718Z,29.50
2022-08-08T00:07:48.369Z,29.40
2022-08-08T00:10:28.064Z,29.40
2022-08-08T00:13:10.266Z,29.40
2022-08-08T00:15:57.213Z,29.40
2022-08-08T00:18:40.646Z,29.40
2022-08-08T00:21:19.575Z,29.30
2022-08-08T00:23:57.868Z,29.30
2022-08-08T00:26:32.658Z,29.30
2022-08-08T00:29:07.980Z,29.30
2022-08-08T00:32:19.885Z,29.20
2022-08-08T00:35:18.992Z,29.20
2022-08-08T00:38:16.795Z,29.20
2022-08-08T00:41:45.144Z,29.10
2022-08-08T00:45:03.764Z,29.10
2022-08-08T00:48:29.789Z,29.10
2022-08-08T00:51:57.927Z,29.00
2022-08-08T00:55:08.479Z,29.00
2022-08-08T00:58:22.128Z,29.00
2022-08-08T01:01:14.450Z,29.00
2022-08-08T01:04:42.449Z,28.90
2022-08-08T01:07:56.018Z,28.90
2022-08-08T01:11:09.938Z,28.90
2022-08-08T01:14:57.227Z,28.90
2022-08-08T01:18:51.060Z,28.80
2022-08-08T01:22:12.514Z,28.80
2022-08-08T01:24:57.108Z,28.80
2022-08-08T01:28:11.086Z,28.80
2022-08-08T01:32:13.741Z,28.70
2022-08-08T01:35:11.400Z,28.70
2022-08-08T01:38:15.959Z,28.70
2022-08-08T01:40:56.395Z,28.60
2022-08-08T01:43:40.665Z,28.60
2022-08-08T01:46:39.394Z,28.60
2022-08-08T01:49:23.290Z,28.60
2022-08-08T01:54:01.927Z,28.60
2022-08-08T01:56:27.215Z,28.50
2022-08-08T01:58:38.783Z,28.50
2022-08-08T02:01:25.324Z,28.50
2022-08-08T02:04:19.661Z,28.50
2022-08-08T02:07:04.256Z,28.50
2022-08-08T02:10:03.612Z,28.40
2022-08-08T02:12:53.162Z,28.40
2022-08-08T02:15:34.545Z,28.40
2022-08-08T02:18:13.274Z,28.40
2022-08-08T02:21:08.604Z,28.40
2022-08-08T02:23:47.805Z,28.40
2022-08-08T02:26:25.654Z,28.40
2022-08-08T02:29:26.392Z,28.30
2022-08-08T02:32:32.084Z,28.30
2022-08-08T02:36:04.814Z,28.30
2022-08-08T02:39:40.397Z,28.30
2022-08-08T02:42:42.175Z,28.30
2022-08-08T02:45:56.908Z,28.30
2022-08-08T02:49:09.731Z,28.20
2022-08-08T02:52:34.675Z,28.20
2022-08-08T02:55:36.462Z,28.20
2022-08-08T02:59:05.776Z,28.20
2022-08-08T03:02:30.334Z,28.10
2022-08-08T03:05:53.435Z,28.10
2022-08-08T03:09:19.578Z,28.10
2022-08-08T03:13:07.407Z,28.10
2022-08-08T03:16:34.398Z,28.00
2022-08-08T03:19:38.838Z,28.00
2022-08-08T03:22:38.420Z,28.00
2022-08-08T03:25:14.488Z,28.00
2022-08-08T03:27:56.685Z,27.90
2022-08-08T03:30:26.783Z,27.90
2022-08-08T03:33:54.026Z,27.90
2022-08-08T03:36:01.071Z,27.90
2022-08-08T03:38:57.202Z,27.90
2022-08-08T03:42:12.390Z,27.90
2022-08-08T03:44:07.401Z,27.80
2022-08-08T03:46:46.400Z,27.80
2022-08-08T03:50:00.665Z,27.80
2022-08-08T03:52:13.160Z,27.80
2022-08-08T03:55:02.684Z,27.80
2022-08-08T03:58:35.722Z,27.80
2022-08-08T04:00:26.422Z,27.80
2022-08-08T04:03:01.174Z,27.70
2022-08-08T04:05:31.410Z,27.70
2022-08-08T04:08:01.495Z,27.70
2022-08-08T04:10:33.000Z,27.70
2022-08-08T04:13:08.242Z,27.60
2022-08-08T04:15:55.184Z,27.60
2022-08-08T04:18:32.533Z,27.60
2022-08-08T04:21:00.868Z,27.60
2022-08-08T04:23:41.346Z,27.60
2022-08-08T04:26:16.659Z,27.60
2022-08-08T04:28:48.788Z,27.50
2022-08-08T04:31:56.794Z,27.50
2022-08-08T04:34:10.326Z,27.50
2022-08-08T04:36:38.162Z,27.50
2022-08-08T04:40:04.319Z,27.40
2022-08-08T04:41:53.851Z,27.40
2022-08-08T04:44:26.849Z,27.40
2022-08-08T04:46:55.734Z,27.40
2022-08-08T04:49:28.988Z,27.40
2022-08-08T04:52:14.290Z,27.40
2022-08-08T04:54:42.658Z,27.40
2022-08-08T04:57:10.896Z,27.30
2022-08-08T04:59:42.471Z,27.30
2022-08-08T05:02:13.569Z,27.30
2022-08-08T05:04:44.508Z,27.30
2022-08-08T05:07:14.837Z,27.30
2022-08-08T05:09:43.809Z,27.30
2022-08-08T05:12:21.033Z,27.30
2022-08-08T05:14:52.338Z,27.30
2022-08-08T05:17:21.575Z,27.20
2022-08-08T05:20:09.785Z,27.20
2022-08-08T05:22:37.439Z,27.20
2022-08-08T05:25:06.701Z,27.20
2022-08-08T05:27:41.792Z,27.20
2022-08-08T05:30:13.884Z,27.20
2022-08-08T05:32:42.539Z,27.20
2022-08-08T05:35:14.847Z,27.20
2022-08-08T05:37:54.465Z,27.20
2022-08-08T05:40:28.298Z,27.20
2022-08-08T05:43:38.329Z,27.20
2022-08-08T05:46:03.395Z,27.20
2022-08-08T05:48:36.295Z,27.20
2022-08-08T05:51:15.285Z,27.20
2022-08-08T05:54:24.452Z,27.20
2022-08-08T05:56:42.065Z,27.20
2022-08-08T05:59:52.379Z,27.20
2022-08-08T06:02:38.637Z,27.20
2022-08-08T06:05:32.892Z,27.20
2022-08-08T06:08:09.691Z,27.20
2022-08-08T06:10:50.606Z,27.20
2022-08-08T06:13:23.232Z,27.20
2022-08-08T06:15:54.995Z,27.20
2022-08-08T06:18:26.622Z,27.20
2022-08-08T06:20:57.856Z,27.20
2022-08-08T06:24:02.115Z,27.20
2022-08-08T06:26:43.577Z,27.20
2022-08-08T06:29:10.657Z,27.20
2022-08-08T06:32:11.463Z,27.20
2022-08-08T06:34:56.268Z,27.20
2022-08-08T06:37:40.387Z,27.20
2022-08-08T06:40:16.394Z,27.20
2022-08-08T06:42:54.410Z,27.20
2022-08-08T06:45:23.360Z,27.20
2022-08-08T06:48:00.824Z,27.20
2022-08-08T06:50:33.490Z,27.30
2022-08-08T06:53:14.532Z,27.30
2022-08-08T06:56:01.940Z,27.30
2022-08-08T06:58:33.078Z,27.30
2022-08-08T07:01:52.234Z,27.30
2022-08-08T07:04:39.041Z,27.30
2022-08-08T07:06:51.490Z,27.40
2022-08-08T07:09:27.138Z,27.40
2022-08-08T07:12:10.620Z,27.40
2022-08-08T07:14:53.864Z,27.40
2022-08-08T07:17:40.050Z,27.40
2022-08-08T07:20:22.126Z,27.40
2022-08-08T07:23:04.680Z,27.40
2022-08-08T07:25:34.917Z,27.50
2022-08-08T07:28:13.511Z,27.50
2022-08-08T07:30:48.091Z,27.50
2022-08-08T07:33:18.833Z,27.50
2022-08-08T07:35:48.706Z,27.50
2022-08-08T07:38:28.257Z,27.50
2022-08-08T07:40:58.935Z,27.50
2022-08-08T07:43:35.450Z,27.50
2022-08-08T07:46:24.043Z,27.60
2022-08-08T07:48:55.449Z,27.60
2022-08-08T07:51:45.517Z,27.60
2022-08-08T07:54:26.982Z,27.60
2022-08-08T07:57:09.144Z,27.60
2022-08-08T07:59:56.270Z,27.60
2022-08-08T08:02:33.051Z,27.70
2022-08-08T08:05:14.799Z,27.70
2022-08-08T08:07:46.049Z,27.70
2022-08-08T08:10:18.051Z,27.70
2022-08-08T08:13:25.595Z,27.70
2022-08-08T08:16:12.183Z,27.80
2022-08-08T08:18:56.282Z,27.80
2022-08-08T08:21:35.364Z,27.80
2022-08-08T08:24:18.688Z,27.80
2022-08-08T08:26:52.861Z,27.80
2022-08-08T08:29:24.071Z,27.80
2022-08-08T08:31:58.372Z,27.80
2022-08-08T08:34:31.861Z,27.80
2022-08-08T08:37:00.995Z,27.80
2022-08-08T08:40:00.591Z,27.80
2022-08-08T08:42:31.936Z,27.80
2022-08-08T08:45:16.466Z,27.80
2022-08-08T08:47:54.232Z,27.80
2022-08-08T08:50:34.064Z,27.90
2022-08-08T08:53:54.022Z,27.90
2022-08-08T08:56:01.189Z,27.90
2022-08-08T08:58:38.040Z,27.90
2022-08-08T09:01:09.735Z,27.90
2022-08-08T09:03:47.799Z,27.90
2022-08-08T09:06:28.252Z,27.90
2022-08-08T09:09:07.427Z,27.90
2022-08-08T09:12:01.468Z,28.00
2022-08-08T09:14:42.827Z,28.00
2022-08-08T09:17:18.961Z,28.00
2022-08-08T09:22:00.532Z,28.00
2022-08-08T09:22:39.554Z,28.00
2022-08-08T09:25:09.930Z,28.00
2022-08-08T09:27:56.166Z,28.00
2022-08-08T09:30:32.505Z,28.00
2022-08-08T09:33:55.669Z,28.10
2022-08-08T09:35:53.652Z,28.10
2022-08-08T09:38:51.948Z,28.10
2022-08-08T09:42:14.559Z,28.10
2022-08-08T09:44:42.118Z,28.10
2022-08-08T09:48:04.709Z,28.10
2022-08-08T09:50:03.474Z,28.20
2022-08-08T09:52:54.053Z,28.20
2022-08-08T09:55:51.235Z,28.20
2022-08-08T09:58:25.840Z,28.20
2022-08-08T10:00:58.952Z,28.20
2022-08-08T10:03:33.849Z,28.20
2022-08-08T10:06:17.670Z,28.20
2022-08-08T10:08:46.907Z,28.20
2022-08-08T10:12:27.879Z,28.20
2022-08-08T10:14:07.407Z,28.30
2022-08-08T10:16:56.823Z,28.30
2022-08-08T10:19:45.897Z,28.30
2022-08-08T10:22:25.383Z,28.30
2022-08-08T10:25:00.070Z,28.30
2022-08-08T10:27:34.513Z,28.30
2022-08-08T10:30:05.385Z,28.30
2022-08-08T10:32:33.987Z,28.30
2022-08-08T10:35:11.647Z,28.40
2022-08-08T10:37:56.576Z,28.40
2022-08-08T10:40:30.775Z,28.40
2022-08-08T10:43:02.828Z,28.40
2022-08-08T10:45:55.973Z,28.40
2022-08-08T10:48:38.855Z,28.40
2022-08-08T10:51:26.089Z,28.40
2022-08-08T10:53:59.156Z,28.40
2022-08-08T10:56:35.161Z,28.50
2022-08-08T10:59:09.291Z,28.50
2022-08-08T11:01:39.834Z,28.50
2022-08-08T11:04:11.848Z,28.50
2022-08-08T11:06:49.194Z,28.50
2022-08-08T11:09:19.764Z,28.50
2022-08-08T11:12:05.478Z,28.50
2022-08-08T11:14:50.773Z,28.50
2022-08-08T11:18:00.772Z,28.50
2022-08-08T11:20:18.162Z,28.50
2022-08-08T11:22:54.066Z,28.60
2022-08-08T11:25:51.657Z,28.60
2022-08-08T11:28:18.646Z,28.60
2022-08-08T11:30:50.307Z,28.60
2022-08-08T11:33:51.219Z,28.60
2022-08-08T11:36:15.043Z,28.60
2022-08-08T11:38:55.236Z,28.60
2022-08-08T11:41:27.716Z,28.70
2022-08-08T11:44:00.625Z,28.70
2022-08-08T11:46:30.598Z,28.70
2022-08-08T11:49:05.177Z,28.70
2022-08-08T11:51:40.015Z,28.70
2022-08-08T11:54:32.228Z,28.70
2022-08-08T11:57:16.973Z,28.70
2022-08-08T12:00:00.554Z,28.70
2022-08-08T12:02:34.133Z,28.70
2022-08-08T12:05:06.665Z,28.70
2022-08-08T12:07:51.567Z,28.70
2022-08-08T12:10:24.618Z,28.80
2022-08-08T12:13:03.598Z,28.80
2022-08-08T12:15:42.704Z,28.80
2022-08-08T12:18:21.565Z,28.80
2022-08-08T12:20:54.717Z,28.80
2022-08-08T12:23:42.682Z,28.80
2022-08-08T12:26:27.956Z,28.80
2022-08-08T12:29:19.645Z,28.80
2022-08-08T12:32:00.650Z,28.80
2022-08-08T12:34:41.265Z,28.90
2022-08-08T12:37:13.224Z,28.90
2022-08-08T12:40:00.430Z,28.90
2022-08-08T12:42:33.131Z,28.90
2022-08-08T12:45:54.127Z,28.90
2022-08-08T12:48:10.550Z,28.90
2022-08-08T12:50:57.593Z,28.90
2022-08-08T12:53:36.394Z,28.90
2022-08-08T12:56:19.299Z,28.90
2022-08-08T12:58:55.301Z,28.90
2022-08-08T13:01:36.893Z,28.90
2022-08-08T13:04:18.368Z,28.90
2022-08-08T13:06:56.149Z,29.00
2022-08-08T13:09:57.788Z,29.00
2022-08-08T13:12:30.592Z,29.00
2022-08-08T13:15:05.650Z,29.00
2022-08-08T13:18:07.825Z,29.00
2022-08-08T13:20:27.402Z,29.00
2022-08-08T13:23:29.953Z,29.00
2022-08-08T13:25:51.165Z,29.00
2022-08-08T13:28:32.460Z,29.00
2022-08-08T13:31:04.029Z,29.00
2022-08-08T13:33:41.914Z,29.00
2022-08-08T13:36:11.738Z,29.00
2022-08-08T13:38:40.176Z,29.00
2022-08-08T13:41:16.159Z,29.10
2022-08-08T13:43:49.798Z,29.10
2022-08-08T13:46:26.578Z,29.10
2022-08-08T13:49:11.533Z,29.10
2022-08-08T13:51:57.159Z,29.10
2022-08-08T13:54:31.177Z,29.10
2022-08-08T13:57:14.571Z,29.10
2022-08-08T13:59:48.600Z,29.10
2022-08-08T14:02:30.964Z,29.10
2022-08-08T14:05:20.230Z,29.20
2022-08-08T14:07:53.199Z,29.20
2022-08-08T14:10:33.476Z,29.20
2022-08-08T14:13:21.132Z,29.20
2022-08-08T14:16:03.733Z,29.20
2022-08-08T14:18:36.502Z,29.20
2022-08-08T14:21:22.538Z,29.20
2022-08-08T14:24:06.735Z,29.20
2022-08-08T14:26:43.005Z,29.20
2022-08-08T14:29:28.840Z,29.20
2022-08-08T14:32:08.710Z,29.30
2022-08-08T14:34:43.218Z,29.20
2022-08-08T14:37:13.158Z,29.30
2022-08-08T14:39:49.742Z,29.30
2022-08-08T14:42:27.470Z,29.30
2022-08-08T14:45:02.098Z,29.30
2022-08-08T14:47:36.288Z,29.30
2022-08-08T14:50:15.258Z,29.30
2022-08-08T14:52:49.923Z,29.30
2022-08-08T14:55:22.184Z,29.30
2022-08-08T14:58:05.062Z,29.30
2022-08-08T15:00:39.715Z,29.30
2022-08-08T15:03:15.558Z,29.30
2022-08-08T15:05:54.620Z,29.30
2022-08-08T15:08:34.273Z,29.30
2022-08-08T15:11:11.592Z,29.40
2022-08-08T15:14:01.465Z,29.40
2022-08-08T15:16:34.381Z,29.40
2022-08-08T15:19:04.049Z,29.40
2022-08-08T15:21:34.106Z,29.40
2022-08-08T15:24:12.671Z,29.40
2022-08-08T15:26:44.003Z,29.40
2022-08-08T15:29:22.598Z,29.40
2022-08-08T15:32:03.451Z,29.40
2022-08-08T15:34:40.183Z,29.40
2022-08-08T15:37:10.151Z,29.40
2022-08-08T15:39:40.843Z,29.40
2022-08-08T15:42:17.660Z,29.40
2022-08-08T15:44:52.524Z,29.40
2022-08-08T15:47:22.524Z,29.40
2022-08-08T15:49:52.996Z,29.50
2022-08-08T15:52:25.094Z,29.50
2022-08-08T15:54:54.470Z,29.50
2022-08-08T15:57:24.046Z,29.50
2022-08-08T16:00:18.309Z,29.50
2022-08-08T16:02:44.651Z,29.50
2022-08-08T16:05:20.513Z,29.50
2022-08-08T16:07:51.164Z,29.50
2022-08-08T16:13:10.009Z,29.50
2022-08-08T16:13:30.148Z,29.50
2022-08-08T16:15:59.018Z,29.60
2022-08-08T16:18:28.044Z,29.60
2022-08-08T16:21:00.050Z,29.60
2022-08-08T16:23:31.780Z,29.60
2022-08-08T16:26:04.059Z,29.60
2022-08-08T16:28:35.303Z,29.60
2022-08-08T16:31:07.786Z,29.60
2022-08-08T16:33:38.981Z,29.60
2022-08-08T16:36:09.703Z,29.60
2022-08-08T16:38:47.198Z,29.60
2022-08-08T16:41:18.493Z,29.60
2022-08-08T16:43:51.000Z,29.60
2022-08-08T16:46:43.089Z,29.60
2022-08-08T16:49:08.901Z,29.60
2022-08-08T16:54:59.768Z,29.70
2022-08-08T16:55:01.835Z,29.60
2022-08-08T16:57:43.598Z,29.70
2022-08-08T17:00:09.500Z,29.70
2022-08-08T17:02:39.870Z,29.70
2022-08-08T17:05:13.853Z,29.70
2022-08-08T17:07:42.607Z,29.70
2022-08-08T17:10:16.974Z,29.70
2022-08-08T17:12:52.997Z,29.70
2022-08-08T17:15:23.130Z,29.70
2022-08-08T17:18:02.610Z,29.70
2022-08-08T17:20:32.018Z,29.70
2022-08-08T17:23:17.842Z,29.70
2022-08-08T17:25:53.374Z,29.70
2022-08-08T17:28:34.749Z,29.70
2022-08-08T17:31:39.350Z,29.70
2022-08-08T17:34:49.773Z,29.80
2022-08-08T17:36:55.146Z,29.80
2022-08-08T17:40:04.740Z,29.80
2022-08-08T17:42:19.123Z,29.80
2022-08-08T17:44:50.871Z,29.80
2022-08-08T17:47:24.290Z,29.80
2022-08-08T17:50:01.344Z,29.80
2022-08-08T17:52:34.091Z,29.80
2022-08-08T17:55:05.537Z,29.80
2022-08-08T17:57:38.791Z,29.80
2022-08-08T18:00:19.193Z,29.80
2022-08-08T18:02:52.078Z,29.80
2022-08-08T18:05:25.951Z,29.80
2022-08-08T18:08:02.187Z,29.80
2022-08-08T18:10:31.954Z,29.80
2022-08-08T18:13:04.144Z,29.80
2022-08-08T18:15:35.572Z,29.80
2022-08-08T18:18:09.445Z,29.80
2022-08-08T18:20:59.160Z,29.90
2022-08-08T18:23:28.064Z,29.90
2022-08-08T18:25:56.473Z,29.90
2022-08-08T18:28:33.433Z,29.90
2022-08-08T18:31:18.733Z,29.90
2022-08-08T18:34:11.401Z,29.90
2022-08-08T18:36:34.401Z,29.90
2022-08-08T18:39:04.920Z,29.90
2022-08-08T18:41:51.925Z,29.90
2022-08-08T18:44:23.050Z,29.90
2022-08-08T18:46:57.755Z,29.90
2022-08-08T18:49:32.254Z,29.90
2022-08-08T18:52:18.464Z,29.90
2022-08-08T18:55:00.463Z,29.90
2022-08-08T18:57:41.139Z,29.90
2022-08-08T19:00:16.467Z,29.90
2022-08-08T19:02:55.701Z,29.90
2022-08-08T19:05:31.861Z,29.90
2022-08-08T19:08:25.405Z,29.90
2022-08-08T19:10:58.749Z,29.90
2022-08-08T19:13:38.379Z,30.00
2022-08-08T19:16:18.380Z,30.00
2022-08-08T19:18:51.778Z,30.00
2022-08-08T19:21:30.907Z,30.00
2022-08-08T19:24:05.789Z,30.00
2022-08-08T19:26:35.791Z,30.00
2022-08-08T19:29:06.844Z,30.00
2022-08-08T19:31:36.262Z,30.00
2022-08-08T19:34:30.446Z,30.00
2022-08-08T19:36:58.484Z,30.00
2022-08-08T19:39:35.053Z,30.00
2022-08-08T19:42:05.123Z,30.10
2022-08-08T19:44:42.850Z,30.10
2022-08-08T19:47:12.760Z,30.10
2022-08-08T19:49:43.626Z,30.10
2022-08-08T19:52:34.384Z,30.10
2022-08-08T19:55:05.100Z,30.10
2022-08-08T19:57:34.925Z,30.10
2022-08-08T20:00:11.237Z,30.10
2022-08-08T20:02:56.574Z,30.10
2022-08-08T20:06:15.057Z,30.10
2022-08-08T20:08:28.949Z,30.10
2022-08-08T20:11:03.151Z,30.10
2022-08-08T20:14:32.178Z,30.10
2022-08-08T20:16:20.213Z,30.10
2022-08-08T20:18:53.927Z,30.10
2022-08-08T20:21:26.069Z,30.10
2022-08-08T20:23:57.872Z,30.10
2022-08-08T20:26:33.685Z,30.20
2022-08-08T20:29:03.965Z,30.20
2022-08-08T20:32:06.896Z,30.20
2022-08-08T20:34:29.621Z,30.20
2022-08-08T20:37:00.448Z,30.20
2022-08-08T20:39:39.205Z,30.20
2022-08-08T20:42:09.555Z,30.20
2022-08-08T20:44:37.766Z,30.20
2022-08-08T20:47:23.016Z,30.20
2022-08-08T20:49:55.888Z,30.20
2022-08-08T20:52:27.797Z,30.20
2022-08-08T20:54:55.895Z,30.20
2022-08-08T20:57:26.968Z,30.20
2022-08-08T20:59:56.194Z,30.20
2022-08-08T21:02:26.167Z,30.20
2022-08-08T21:05:00.879Z,30.20
2022-08-08T21:08:00.720Z,30.20
2022-08-08T21:10:21.054Z,30.20
2022-08-08T21:12:54.560Z,30.20
2022-08-08T21:16:05.064Z,30.20
2022-08-08T21:18:12.162Z,30.20
2022-08-08T21:20:42.994Z,30.20
2022-08-08T21:23:18.804Z,30.20
2022-08-08T21:25:53.450Z,30.20
2022-08-08T21:28:35.685Z,30.20
2022-08-08T21:31:21.883Z,30.20
2022-08-08T21:34:01.742Z,30.20
2022-08-08T21:37:11.301Z,30.20
2022-08-08T21:39:56.974Z,30.30
2022-08-08T21:42:26.557Z,30.30
2022-08-08T21:45:01.255Z,30.30
2022-08-08T21:48:21.659Z,30.30
2022-08-08T21:50:51.758Z,30.30
2022-08-08T21:54:22.853Z,30.30
2022-08-08T21:56:29.495Z,30.30
2022-08-08T21:59:12.136Z,30.30
2022-08-08T22:01:45.880Z,30.30
2022-08-08T22:04:24.802Z,30.20
2022-08-08T22:07:00.594Z,30.20
2022-08-08T22:10:03.607Z,30.20
2022-08-08T22:12:57.326Z,30.30
2022-08-08T22:16:00.801Z,30.30
2022-08-08T22:18:52.962Z,30.30
2022-08-08T22:21:34.621Z,30.30
2022-08-08T22:24:35.423Z,30.20
2022-08-08T22:27:06.209Z,30.30
2022-08-08T22:29:59.353Z,30.30
2022-08-08T22:32:22.867Z,30.20
2022-08-08T22:34:51.617Z,30.20
2022-08-08T22:37:48.870Z,30.20
2022-08-08T22:40:16.358Z,30.20
2022-08-08T22:42:47.346Z,30.20
2022-08-08T22:45:16.220Z,30.20
2022-08-08T22:47:49.407Z,30.20
2022-08-08T22:50:25.652Z,30.20
2022-08-08T22:53:22.396Z,30.20
2022-08-08T22:55:58.196Z,30.20
2022-08-08T22:58:34.365Z,30.20
2022-08-08T23:01:16.480Z,30.20
2022-08-08T23:03:54.670Z,30.20
2022-08-08T23:06:24.372Z,30.20
2022-08-08T23:08:55.220Z,30.20
2022-08-08T23:11:31.093Z,30.20
2022-08-08T23:14:18.673Z,30.20
2022-08-08T23:16:54.768Z,30.20
2022-08-08T23:19:26.120Z,30.20
2022-08-08T23:21:54.250Z,30.20
2022-08-08T23:24:23.543Z,30.20
2022-08-08T23:26:55.254Z,30.20
2022-08-08T23:29:27.152Z,30.20
2022-08-08T23:31:58.420Z,30.20
2022-08-08T23:34:26.391Z,30.20
2022-08-08T23:36:58.175Z,30.20
2022-08-08T23:39:32.013Z,30.20
2022-08-08T23:42:09.474Z,30.20
2022-08-08T23:44:39.373Z,30.20
2022-08-08T23:49:06.571Z,30.10
2022-08-08T23:50:03.020Z,30.10
2022-08-08T23:52:34.213Z,30.10
2022-08-08T23:55:13.963Z,30.10
2022-08-08T23:57:53.136Z,30.10
